sensor_id;sensor_type;location;lat;lon;timestamp;pressure;altitude;pressure_sealevel;temperature;humidity
23363;BME280;11853;48.080;11.960;2023-02-05T00:00:20;96628.50;;;2.11;94.29
23363;BME280;11853;48.080;11.960;2023-02-05T00:02:46;96616.38;;;2.09;94.29
23363;BME280;11853;48.080;11.960;2023-02-05T00:05:12;96615.63;;;2.07;94.78
23363;BME280;11853;48.080;11.960;2023-02-05T00:07:37;96613.84;;;2.07;95.04
23363;BME280;11853;48.080;11.960;2023-02-05T00:10:04;96611.16;;;2.09;94.42
23363;BME280;11853;48.080;11.960;2023-02-05T00:12:30;96610.25;;;2.10;94.67
23363;BME280;11853;48.080;11.960;2023-02-05T00:14:56;96605.91;;;2.09;93.74
23363;BME280;11853;48.080;11.960;2023-02-05T00:17:22;96607.56;;;2.11;94.54
23363;BME280;11853;48.080;11.960;2023-02-05T00:19:47;96614.47;;;2.14;94.30
23363;BME280;11853;48.080;11.960;2023-02-05T00:22:13;96610.41;;;2.05;93.42
23363;BME280;11853;48.080;11.960;2023-02-05T00:24:38;96606.03;;;2.06;94.92
23363;BME280;11853;48.080;11.960;2023-02-05T00:27:06;96601.75;;;2.03;94.56
23363;BME280;11853;48.080;11.960;2023-02-05T00:29:31;96605.03;;;2.10;94.64
23363;BME280;11853;48.080;11.960;2023-02-05T00:31:57;96604.28;;;2.06;94.29
23363;BME280;11853;48.080;11.960;2023-02-05T00:34:22;96613.97;;;2.04;94.78
23363;BME280;11853;48.080;11.960;2023-02-05T00:36:48;96620.97;;;2.03;94.54
23363;BME280;11853;48.080;11.960;2023-02-05T00:39:14;96613.88;;;2.06;94.25
23363;BME280;11853;48.080;11.960;2023-02-05T00:41:40;96614.81;;;2.05;94.50
23363;BME280;11853;48.080;11.960;2023-02-05T00:44:06;96612.06;;;2.08;94.86
23363;BME280;11853;48.080;11.960;2023-02-05T00:46:32;96609.56;;;2.05;95.28
23363;BME280;11853;48.080;11.960;2023-02-05T00:48:57;96604.50;;;2.00;95.64
23363;BME280;11853;48.080;11.960;2023-02-05T00:51:23;96617.59;;;2.00;95.06
23363;BME280;11853;48.080;11.960;2023-02-05T00:53:48;96619.47;;;1.96;95.11
23363;BME280;11853;48.080;11.960;2023-02-05T00:56:14;96626.50;;;1.94;95.66
23363;BME280;11853;48.080;11.960;2023-02-05T00:58:40;96623.00;;;1.95;95.51
23363;BME280;11853;48.080;11.960;2023-02-05T01:01:05;96633.59;;;1.92;95.57
23363;BME280;11853;48.080;11.960;2023-02-05T01:03:31;96636.34;;;1.88;95.59
23363;BME280;11853;48.080;11.960;2023-02-05T01:05:56;96638.16;;;1.86;95.70
23363;BME280;11853;48.080;11.960;2023-02-05T01:08:22;96623.34;;;1.86;96.22
23363;BME280;11853;48.080;11.960;2023-02-05T01:10:49;96627.66;;;1.87;96.25
23363;BME280;11853;48.080;11.960;2023-02-05T01:13:16;96629.00;;;1.97;95.79
23363;BME280;11853;48.080;11.960;2023-02-05T01:15:42;96620.44;;;1.94;96.16
23363;BME280;11853;48.080;11.960;2023-02-05T01:18:08;96626.25;;;2.02;95.04
23363;BME280;11853;48.080;11.960;2023-02-05T01:20:36;96622.78;;;2.01;95.06
23363;BME280;11853;48.080;11.960;2023-02-05T01:23:02;96626.25;;;2.02;94.73
23363;BME280;11853;48.080;11.960;2023-02-05T01:25:28;96620.97;;;2.03;95.25
23363;BME280;11853;48.080;11.960;2023-02-05T01:27:54;96610.63;;;2.00;95.52
23363;BME280;11853;48.080;11.960;2023-02-05T01:30:21;96615.84;;;2.00;95.55
23363;BME280;11853;48.080;11.960;2023-02-05T01:32:47;96608.00;;;2.00;95.79
23363;BME280;11853;48.080;11.960;2023-02-05T01:35:12;96612.19;;;2.05;96.36
23363;BME280;11853;48.080;11.960;2023-02-05T01:37:38;96606.91;;;2.06;95.50
23363;BME280;11853;48.080;11.960;2023-02-05T01:40:04;96601.72;;;2.05;95.53
23363;BME280;11853;48.080;11.960;2023-02-05T01:42:31;96595.75;;;2.01;95.83
23363;BME280;11853;48.080;11.960;2023-02-05T01:47:48;96599.50;;;1.94;95.37
23363;BME280;11853;48.080;11.960;2023-02-05T01:50:16;96607.31;;;1.95;96.16
23363;BME280;11853;48.080;11.960;2023-02-05T01:52:43;96607.31;;;1.95;95.20
23363;BME280;11853;48.080;11.960;2023-02-05T01:55:11;96596.03;;;1.93;95.71
23363;BME280;11853;48.080;11.960;2023-02-05T01:57:37;96606.50;;;1.93;94.92
23363;BME280;11853;48.080;11.960;2023-02-05T02:00:04;96594.25;;;1.94;95.04
23363;BME280;11853;48.080;11.960;2023-02-05T02:02:33;96604.72;;;1.94;95.08
23363;BME280;11853;48.080;11.960;2023-02-05T02:05:02;96601.22;;;1.95;94.82
23363;BME280;11853;48.080;11.960;2023-02-05T02:07:31;96608.44;;;1.88;94.77
23363;BME280;11853;48.080;11.960;2023-02-05T02:09:58;96605.91;;;1.85;95.34
23363;BME280;11853;48.080;11.960;2023-02-05T02:12:32;96608.44;;;1.88;95.74
23363;BME280;11853;48.080;11.960;2023-02-05T02:15:03;96604.84;;;1.91;95.29
23363;BME280;11853;48.080;11.960;2023-02-05T02:17:31;96600.34;;;1.94;95.39
23363;BME280;11853;48.080;11.960;2023-02-05T02:20:11;96609.13;;;1.93;95.60
23363;BME280;11853;48.080;11.960;2023-02-05T02:28:33;96595.81;;;1.99;95.44
23363;BME280;11853;48.080;11.960;2023-02-05T02:31:30;96600.22;;;1.97;95.32
23363;BME280;11853;48.080;11.960;2023-02-05T02:34:10;96589.88;;;1.94;96.25
23363;BME280;11853;48.080;11.960;2023-02-05T02:39:18;96591.38;;;2.01;96.30
23363;BME280;11853;48.080;11.960;2023-02-05T02:41:51;96583.53;;;2.01;96.46
23363;BME280;11853;48.080;11.960;2023-02-05T02:44:23;96588.75;;;2.01;96.31
23363;BME280;11853;48.080;11.960;2023-02-05T02:46:54;96581.91;;;1.97;96.45
23363;BME280;11853;48.080;11.960;2023-02-05T02:49:41;96586.38;;;1.95;96.74
23363;BME280;11853;48.080;11.960;2023-02-05T02:52:14;96586.19;;;2.00;95.58
23363;BME280;11853;48.080;11.960;2023-02-05T02:54:46;96575.91;;;1.95;95.61
23363;BME280;11853;48.080;11.960;2023-02-05T02:57:14;96576.78;;;1.94;94.19
23363;BME280;11853;48.080;11.960;2023-02-05T02:59:42;96574.19;;;1.94;94.99
23363;BME280;11853;48.080;11.960;2023-02-05T03:02:11;96573.56;;;1.88;94.50
23363;BME280;11853;48.080;11.960;2023-02-05T03:04:44;96568.41;;;1.86;94.70
23363;BME280;11853;48.080;11.960;2023-02-05T03:07:27;96560.44;;;1.89;94.45
23363;BME280;11853;48.080;11.960;2023-02-05T03:10:13;96571.75;;;1.90;94.72
23363;BME280;11853;48.080;11.960;2023-02-05T03:12:43;96562.38;;;1.84;95.08
23363;BME280;11853;48.080;11.960;2023-02-05T03:15:09;96563.25;;;1.83;95.79
23363;BME280;11853;48.080;11.960;2023-02-05T03:17:36;96555.59;;;1.78;94.91
23363;BME280;11853;48.080;11.960;2023-02-05T03:20:10;96560.72;;;1.82;94.78
23363;BME280;11853;48.080;11.960;2023-02-05T03:22:37;96554.56;;;1.83;95.15
23363;BME280;11853;48.080;11.960;2023-02-05T03:25:04;96560.75;;;1.80;95.12
23363;BME280;11853;48.080;11.960;2023-02-05T03:27:29;96552.91;;;1.80;95.05
23363;BME280;11853;48.080;11.960;2023-02-05T03:29:55;96556.44;;;1.79;95.86
23363;BME280;11853;48.080;11.960;2023-02-05T03:32:44;96546.09;;;1.76;95.96
23363;BME280;11853;48.080;11.960;2023-02-05T03:38:21;96541.91;;;1.72;96.48
23363;BME280;11853;48.080;11.960;2023-02-05T03:40:56;96537.44;;;1.74;96.14
23363;BME280;11853;48.080;11.960;2023-02-05T03:44:06;96532.16;;;1.75;96.39
23363;BME280;11853;48.080;11.960;2023-02-05T03:46:50;96534.78;;;1.75;96.21
23363;BME280;11853;48.080;11.960;2023-02-05T03:49:46;96517.78;;;1.64;96.57
23363;BME280;11853;48.080;11.960;2023-02-05T03:52:26;96520.06;;;1.49;96.89
23363;BME280;11853;48.080;11.960;2023-02-05T03:59:59;96524.53;;;1.46;95.99
23363;BME280;11853;48.080;11.960;2023-02-05T04:02:25;96522.50;;;1.54;96.31
23363;BME280;11853;48.080;11.960;2023-02-05T04:04:51;96532.31;;;1.47;96.91
23363;BME280;11853;48.080;11.960;2023-02-05T04:07:17;96533.97;;;1.50;96.61
23363;BME280;11853;48.080;11.960;2023-02-05T04:09:42;96524.59;;;1.44;96.22
23363;BME280;11853;48.080;11.960;2023-02-05T04:12:08;96539.44;;;1.44;96.35
23363;BME280;11853;48.080;11.960;2023-02-05T04:14:34;96538.59;;;1.43;96.16
23363;BME280;11853;48.080;11.960;2023-02-05T04:16:59;96540.28;;;1.44;95.44
23363;BME280;11853;48.080;11.960;2023-02-05T04:19:25;96535.16;;;1.41;95.60
23363;BME280;11853;48.080;11.960;2023-02-05T04:21:51;96530.81;;;1.40;95.65
23363;BME280;11853;48.080;11.960;2023-02-05T04:24:16;96525.66;;;1.39;95.91
23363;BME280;11853;48.080;11.960;2023-02-05T04:26:42;96524.34;;;1.27;95.45
23363;BME280;11853;48.080;11.960;2023-02-05T04:29:07;96525.19;;;1.27;95.94
23363;BME280;11853;48.080;11.960;2023-02-05T04:31:33;96525.16;;;1.29;95.41
23363;BME280;11853;48.080;11.960;2023-02-05T04:33:58;96519.94;;;1.29;95.18
23363;BME280;11853;48.080;11.960;2023-02-05T04:36:24;96522.63;;;1.26;95.44
23363;BME280;11853;48.080;11.960;2023-02-05T04:38:50;96510.47;;;1.25;95.66
23363;BME280;11853;48.080;11.960;2023-02-05T04:41:15;96500.81;;;1.27;95.61
23363;BME280;11853;48.080;11.960;2023-02-05T04:43:42;96505.03;;;1.31;95.40
23363;BME280;11853;48.080;11.960;2023-02-05T04:46:09;96506.84;;;1.29;94.82
23363;BME280;11853;48.080;11.960;2023-02-05T04:48:36;96493.00;;;1.27;94.90
23363;BME280;11853;48.080;11.960;2023-02-05T04:51:10;96503.56;;;1.24;94.84
23363;BME280;11853;48.080;11.960;2023-02-05T04:53:36;96486.84;;;1.28;94.34
23363;BME280;11853;48.080;11.960;2023-02-05T04:56:07;96498.44;;;1.21;94.81
23363;BME280;11853;48.080;11.960;2023-02-05T04:58:53;96504.66;;;1.17;94.48
23363;BME280;11853;48.080;11.960;2023-02-05T05:01:21;96494.31;;;1.13;94.68
23363;BME280;11853;48.080;11.960;2023-02-05T05:03:48;96494.31;;;1.13;94.91
23363;BME280;11853;48.080;11.960;2023-02-05T05:06:15;96490.00;;;1.12;94.58
23363;BME280;11853;48.080;11.960;2023-02-05T05:08:41;96489.16;;;1.12;95.04
23363;BME280;11853;48.080;11.960;2023-02-05T05:11:10;96493.44;;;1.15;95.01
23363;BME280;11853;48.080;11.960;2023-02-05T05:16:58;96483.28;;;1.05;95.22
23363;BME280;11853;48.080;11.960;2023-02-05T05:19:24;96490.25;;;1.06;95.35
23363;BME280;11853;48.080;11.960;2023-02-05T05:21:49;96497.16;;;1.07;95.60
23363;BME280;11853;48.080;11.960;2023-02-05T05:24:15;96489.28;;;1.09;96.03
23363;BME280;11853;48.080;11.960;2023-02-05T05:26:41;96492.63;;;1.12;95.88
23363;BME280;11853;48.080;11.960;2023-02-05T05:29:12;96488.28;;;1.11;96.57
23363;BME280;11853;48.080;11.960;2023-02-05T05:31:38;96488.97;;;1.17;96.51
23363;BME280;11853;48.080;11.960;2023-02-05T05:34:03;96488.09;;;1.18;96.20
23363;BME280;11853;48.080;11.960;2023-02-05T05:36:29;96487.31;;;1.14;96.92
23363;BME280;11853;48.080;11.960;2023-02-05T05:38:55;96485.41;;;1.19;96.63
23363;BME280;11853;48.080;11.960;2023-02-05T05:41:40;96487.19;;;1.19;96.65
23363;BME280;11853;48.080;11.960;2023-02-05T05:44:24;96474.09;;;1.19;96.66
23363;BME280;11853;48.080;11.960;2023-02-05T05:46:50;96474.91;;;1.21;97.08
23363;BME280;11853;48.080;11.960;2023-02-05T05:49:15;96485.31;;;1.22;97.14
23363;BME280;11853;48.080;11.960;2023-02-05T05:51:41;96493.84;;;1.27;97.15
23363;BME280;11853;48.080;11.960;2023-02-05T05:54:06;96489.44;;;1.28;97.97
23363;BME280;11853;48.080;11.960;2023-02-05T05:56:32;96485.19;;;1.25;97.69
23363;BME280;11853;48.080;11.960;2023-02-05T05:59:00;96480.72;;;1.29;97.56
23363;BME280;11853;48.080;11.960;2023-02-05T06:01:26;96485.75;;;1.33;96.77
23363;BME280;11853;48.080;11.960;2023-02-05T06:03:52;96480.75;;;1.27;96.66
23363;BME280;11853;48.080;11.960;2023-02-05T06:06:18;96493.84;;;1.27;97.39
23363;BME280;11853;48.080;11.960;2023-02-05T06:08:44;96494.91;;;1.22;98.10
23363;BME280;11853;48.080;11.960;2023-02-05T06:11:11;96495.81;;;1.21;98.17
23363;BME280;11853;48.080;11.960;2023-02-05T06:13:37;96503.44;;;1.27;98.04
23363;BME280;11853;48.080;11.960;2023-02-05T06:16:03;96492.88;;;1.30;97.82
23363;BME280;11853;48.080;11.960;2023-02-05T06:18:29;96493.00;;;1.27;97.92
23363;BME280;11853;48.080;11.960;2023-02-05T06:20:55;96493.94;;;1.24;98.08
23363;BME280;11853;48.080;11.960;2023-02-05T06:23:20;96494.06;;;1.21;99.24
23363;BME280;11853;48.080;11.960;2023-02-05T06:25:46;96498.25;;;1.25;98.96
23363;BME280;11853;48.080;11.960;2023-02-05T06:28:12;96491.19;;;1.29;98.77
23363;BME280;11853;48.080;11.960;2023-02-05T06:30:38;96488.38;;;1.33;98.22
23363;BME280;11853;48.080;11.960;2023-02-05T06:33:03;96497.25;;;1.29;98.60
23363;BME280;11853;48.080;11.960;2023-02-05T06:35:29;96504.13;;;1.32;98.96
23363;BME280;11853;48.080;11.960;2023-02-05T06:37:55;96503.09;;;1.36;98.51
23363;BME280;11853;48.080;11.960;2023-02-05T06:40:21;96505.56;;;1.41;98.45
23363;BME280;11853;48.080;11.960;2023-02-05T06:42:53;96504.69;;;1.40;98.69
23363;BME280;11853;48.080;11.960;2023-02-05T06:45:19;96509.81;;;1.43;98.54
23363;BME280;11853;48.080;11.960;2023-02-05T06:47:47;96521.19;;;1.42;98.90
23363;BME280;11853;48.080;11.960;2023-02-05T06:50:13;96511.41;;;1.47;98.22
23363;BME280;11853;48.080;11.960;2023-02-05T06:52:38;96508.41;;;1.58;97.41
23363;BME280;11853;48.080;11.960;2023-02-05T06:55:04;96503.69;;;1.68;97.19
23363;BME280;11853;48.080;11.960;2023-02-05T06:57:30;96513.91;;;1.74;96.25
23363;BME280;11853;48.080;11.960;2023-02-05T06:59:58;96506.06;;;1.74;96.86
23363;BME280;11853;48.080;11.960;2023-02-05T07:02:24;96501.38;;;1.82;96.66
23363;BME280;11853;48.080;11.960;2023-02-05T07:04:50;96510.78;;;1.88;96.12
23363;BME280;11853;48.080;11.960;2023-02-05T07:07:16;96505.50;;;1.89;95.86
23363;BME280;11853;48.080;11.960;2023-02-05T07:09:42;96513.09;;;1.95;95.80
23363;BME280;11853;48.080;11.960;2023-02-05T07:12:08;96515.94;;;2.35;95.15
23363;BME280;11853;48.080;11.960;2023-02-05T07:14:38;96513.97;;;3.03;92.81
23363;BME280;11853;48.080;11.960;2023-02-05T07:17:05;96504.47;;;3.41;89.51
23363;BME280;11853;48.080;11.960;2023-02-05T07:19:35;96511.03;;;3.31;88.23
23363;BME280;11853;48.080;11.960;2023-02-05T07:22:01;96506.91;;;3.25;88.80
23363;BME280;11853;48.080;11.960;2023-02-05T07:24:26;96509.97;;;3.14;89.08
23363;BME280;11853;48.080;11.960;2023-02-05T07:26:52;96519.22;;;3.03;89.02
23363;BME280;11853;48.080;11.960;2023-02-05T07:29:17;96516.41;;;2.87;89.78
23363;BME280;11853;48.080;11.960;2023-02-05T07:31:43;96516.31;;;2.88;89.71
23363;BME280;11853;48.080;11.960;2023-02-05T07:34:09;96508.28;;;2.93;89.43
23363;BME280;11853;48.080;11.960;2023-02-05T07:36:34;96506.63;;;3.11;90.00
23363;BME280;11853;48.080;11.960;2023-02-05T07:39:00;96507.66;;;3.48;87.81
23363;BME280;11853;48.080;11.960;2023-02-05T07:41:26;96506.56;;;3.72;88.05
23363;BME280;11853;48.080;11.960;2023-02-05T07:43:53;96506.78;;;3.87;86.67
23363;BME280;11853;48.080;11.960;2023-02-05T07:46:19;96509.19;;;3.91;86.09
23363;BME280;11853;48.080;11.960;2023-02-05T07:48:45;96499.28;;;3.98;85.46
23363;BME280;11853;48.080;11.960;2023-02-05T07:51:18;96502.22;;;4.09;84.97
23363;BME280;11853;48.080;11.960;2023-02-05T07:53:44;96502.72;;;4.17;84.74
23363;BME280;11853;48.080;11.960;2023-02-05T07:56:11;96498.94;;;4.23;83.93
23363;BME280;11853;48.080;11.960;2023-02-05T07:58:36;96492.69;;;4.25;83.21
23363;BME280;11853;48.080;11.960;2023-02-05T08:01:04;96491.91;;;4.23;82.34
23363;BME280;11853;48.080;11.960;2023-02-05T08:03:30;96495.06;;;4.49;80.71
23363;BME280;11853;48.080;11.960;2023-02-05T08:05:57;96490.88;;;4.81;81.18
23363;BME280;11853;48.080;11.960;2023-02-05T08:08:23;96495.47;;;5.28;81.11
23363;BME280;11853;48.080;11.960;2023-02-05T08:10:59;96489.19;;;5.97;78.21
23363;BME280;11853;48.080;11.960;2023-02-05T08:13:25;96494.06;;;6.52;75.69
23363;BME280;11853;48.080;11.960;2023-02-05T08:15:51;96497.94;;;7.07;73.30
23363;BME280;11853;48.080;11.960;2023-02-05T08:18:17;96501.25;;;7.25;68.53
23363;BME280;11853;48.080;11.960;2023-02-05T08:20:43;96503.75;;;7.57;64.69
23363;BME280;11853;48.080;11.960;2023-02-05T08:23:09;96506.03;;;7.77;63.22
23363;BME280;11853;48.080;11.960;2023-02-05T08:25:36;96504.19;;;8.21;61.38
23363;BME280;11853;48.080;11.960;2023-02-05T08:28:03;96500.91;;;8.17;54.72
23363;BME280;11853;48.080;11.960;2023-02-05T08:30:29;96510.19;;;7.81;58.26
23363;BME280;11853;48.080;11.960;2023-02-05T08:32:54;96505.63;;;8.12;56.70
23363;BME280;11853;48.080;11.960;2023-02-05T08:35:20;96502.97;;;8.12;56.74
23363;BME280;11853;48.080;11.960;2023-02-05T08:37:45;96501.63;;;8.48;53.29
23363;BME280;11853;48.080;11.960;2023-02-05T08:40:12;96500.66;;;9.03;51.86
23363;BME280;11853;48.080;11.960;2023-02-05T08:42:38;96489.50;;;9.38;50.45
23363;BME280;11853;48.080;11.960;2023-02-05T08:45:04;96498.41;;;9.37;55.16
23363;BME280;11853;48.080;11.960;2023-02-05T08:47:35;96487.38;;;9.43;52.44
23363;BME280;11853;48.080;11.960;2023-02-05T08:50:05;96483.72;;;10.21;53.56
23363;BME280;11853;48.080;11.960;2023-02-05T08:52:32;96481.19;;;11.04;52.44
23363;BME280;11853;48.080;11.960;2023-02-05T08:54:57;96473.94;;;11.53;47.25
23363;BME280;11853;48.080;11.960;2023-02-05T08:57:29;96467.03;;;11.97;47.67
23363;BME280;11853;48.080;11.960;2023-02-05T08:59:55;96450.31;;;12.39;44.00
23363;BME280;11853;48.080;11.960;2023-02-05T09:02:22;96445.09;;;12.27;44.60
23363;BME280;11853;48.080;11.960;2023-02-05T09:04:48;96456.06;;;12.56;43.42
23363;BME280;11853;48.080;11.960;2023-02-05T09:07:15;96449.31;;;12.40;45.97
23363;BME280;11853;48.080;11.960;2023-02-05T09:09:40;96444.25;;;12.26;44.49
23363;BME280;11853;48.080;11.960;2023-02-05T09:12:09;96442.59;;;12.03;43.07
23363;BME280;11853;48.080;11.960;2023-02-05T09:14:36;96433.91;;;11.89;46.71
23363;BME280;11853;48.080;11.960;2023-02-05T09:17:06;96435.94;;;12.20;46.24
23363;BME280;11853;48.080;11.960;2023-02-05T09:19:33;96429.06;;;12.60;45.71
23363;BME280;11853;48.080;11.960;2023-02-05T09:21:59;96429.81;;;12.83;46.15
23363;BME280;11853;48.080;11.960;2023-02-05T09:24:25;96431.16;;;13.10;46.28
23363;BME280;11853;48.080;11.960;2023-02-05T09:26:50;96438.84;;;13.24;43.86
23363;BME280;11853;48.080;11.960;2023-02-05T09:29:16;96427.50;;;12.90;44.40
23363;BME280;11853;48.080;11.960;2023-02-05T09:31:42;96420.59;;;12.88;43.83
23363;BME280;11853;48.080;11.960;2023-02-05T09:34:07;96426.28;;;12.62;46.12
23363;BME280;11853;48.080;11.960;2023-02-05T09:36:33;96435.53;;;12.35;45.38
23363;BME280;11853;48.080;11.960;2023-02-05T09:38:58;96429.56;;;11.88;45.33
23363;BME280;11853;48.080;11.960;2023-02-05T09:41:28;96422.16;;;11.92;46.82
23363;BME280;11853;48.080;11.960;2023-02-05T09:44:10;96429.63;;;12.32;46.02
23363;BME280;11853;48.080;11.960;2023-02-05T09:46:56;96421.28;;;12.69;45.07
23363;BME280;11853;48.080;11.960;2023-02-05T09:49:29;96426.75;;;13.20;43.88
23363;BME280;11853;48.080;11.960;2023-02-05T09:52:01;96424.19;;;13.19;44.72
23363;BME280;11853;48.080;11.960;2023-02-05T09:54:32;96421.72;;;12.85;44.44
23363;BME280;11853;48.080;11.960;2023-02-05T09:57:05;96416.13;;;12.88;44.52
23363;BME280;11853;48.080;11.960;2023-02-05T09:59:32;96409.75;;;13.33;44.03
23363;BME280;11853;48.080;11.960;2023-02-05T10:02:00;96408.53;;;13.67;44.36
23363;BME280;11853;48.080;11.960;2023-02-05T10:04:27;96414.94;;;14.16;42.87
23363;BME280;11853;48.080;11.960;2023-02-05T10:07:02;96406.34;;;14.63;42.81
23363;BME280;11853;48.080;11.960;2023-02-05T10:22:54;96362.94;;;16.39;39.01
23363;BME280;11853;48.080;11.960;2023-02-05T10:28:32;96355.75;;;15.85;36.77
23363;BME280;11853;48.080;11.960;2023-02-05T10:33:43;96328.94;;;15.20;38.83
23363;BME280;11853;48.080;11.960;2023-02-05T10:36:30;96332.22;;;14.75;39.88
23363;BME280;11853;48.080;11.960;2023-02-05T10:38:57;96328.41;;;14.48;41.07
23363;BME280;11853;48.080;11.960;2023-02-05T10:41:36;96336.16;;;13.82;41.29
23363;BME280;11853;48.080;11.960;2023-02-05T10:44:12;96328.97;;;13.72;39.77
23363;BME280;11853;48.080;11.960;2023-02-05T10:46:39;96326.34;;;13.92;40.96
23363;BME280;11853;48.080;11.960;2023-02-05T10:49:15;96323.41;;;13.95;41.24
23363;BME280;11853;48.080;11.960;2023-02-05T10:51:44;96313.44;;;13.97;39.75
23363;BME280;11853;48.080;11.960;2023-02-05T10:54:28;96309.84;;;14.17;40.54
23363;BME280;11853;48.080;11.960;2023-02-05T10:56:56;96317.56;;;14.50;41.98
23363;BME280;11853;48.080;11.960;2023-02-05T10:59:35;96317.72;;;14.29;39.70
23363;BME280;11853;48.080;11.960;2023-02-05T11:02:09;96308.91;;;14.77;40.28
23363;BME280;11853;48.080;11.960;2023-02-05T11:04:48;96303.22;;;15.09;39.56
23363;BME280;11853;48.080;11.960;2023-02-05T11:07:46;96301.63;;;15.26;40.51
23363;BME280;11853;48.080;11.960;2023-02-05T11:10:29;96298.47;;;15.40;40.19
23363;BME280;11853;48.080;11.960;2023-02-05T11:13:13;96292.06;;;15.14;39.02
23363;BME280;11853;48.080;11.960;2023-02-05T11:16:01;96286.84;;;15.22;40.38
23363;BME280;11853;48.080;11.960;2023-02-05T11:18:42;96289.69;;;15.10;40.21
23363;BME280;11853;48.080;11.960;2023-02-05T11:21:11;96282.28;;;14.95;39.30
23363;BME280;11853;48.080;11.960;2023-02-05T11:23:54;96284.84;;;14.38;40.18
23363;BME280;11853;48.080;11.960;2023-02-05T11:26:22;96284.63;;;13.41;40.03
23363;BME280;11853;48.080;11.960;2023-02-05T11:28:48;96289.16;;;12.98;42.52
23363;BME280;11853;48.080;11.960;2023-02-05T11:31:24;96279.84;;;12.83;42.91
23363;BME280;11853;48.080;11.960;2023-02-05T11:33:51;96285.72;;;12.45;42.85
23363;BME280;11853;48.080;11.960;2023-02-05T11:36:24;96283.41;;;11.76;44.00
23363;BME280;11853;48.080;11.960;2023-02-05T11:38:53;96295.75;;;11.54;44.92
23363;BME280;11853;48.080;11.960;2023-02-05T11:41:34;96292.69;;;11.81;45.66
23363;BME280;11853;48.080;11.960;2023-02-05T11:44:41;96292.00;;;11.68;46.92
23363;BME280;11853;48.080;11.960;2023-02-05T11:47:27;96293.69;;;11.58;46.13
23363;BME280;11853;48.080;11.960;2023-02-05T11:49:55;96280.75;;;11.64;47.28
23363;BME280;11853;48.080;11.960;2023-02-05T11:52:28;96285.22;;;11.64;45.29
23363;BME280;11853;48.080;11.960;2023-02-05T11:54:55;96287.69;;;11.33;46.57
23363;BME280;11853;48.080;11.960;2023-02-05T12:02:32;96283.81;;;11.37;46.47
23363;BME280;11853;48.080;11.960;2023-02-05T12:08:26;96287.69;;;11.11;45.78
23363;BME280;11853;48.080;11.960;2023-02-05T12:10:38;96291.41;;;10.86;47.06
23363;BME280;11853;48.080;11.960;2023-02-05T12:19:23;96295.06;;;10.49;48.85
23363;BME280;11853;48.080;11.960;2023-02-05T12:21:56;96286.38;;;10.47;48.24
23363;BME280;11853;48.080;11.960;2023-02-05T12:24:48;96289.47;;;10.41;48.25
23363;BME280;11853;48.080;11.960;2023-02-05T12:27:26;96280.00;;;10.26;48.98
23363;BME280;11853;48.080;11.960;2023-02-05T12:30:24;96276.84;;;10.21;49.24
23363;BME280;11853;48.080;11.960;2023-02-05T12:33:37;96277.53;;;10.11;48.97
23363;BME280;11853;48.080;11.960;2023-02-05T12:39:04;96265.59;;;9.82;49.14
23363;BME280;11853;48.080;11.960;2023-02-05T12:42:03;96264.81;;;9.68;50.62
23363;BME280;11853;48.080;11.960;2023-02-05T12:50:28;96257.22;;;9.27;49.86
23363;BME280;11853;48.080;11.960;2023-02-05T12:53:19;96256.16;;;9.17;50.66
23363;BME280;11853;48.080;11.960;2023-02-05T12:58:56;96260.97;;;8.99;50.39
23363;BME280;11853;48.080;11.960;2023-02-05T13:01:57;96265.28;;;9.00;50.91
23363;BME280;11853;48.080;11.960;2023-02-05T13:04:35;96254.81;;;8.86;51.06
23363;BME280;11853;48.080;11.960;2023-02-05T13:07:20;96252.81;;;8.64;51.61
23363;BME280;11853;48.080;11.960;2023-02-05T13:09:56;96245.84;;;8.63;51.72
23363;BME280;11853;48.080;11.960;2023-02-05T13:12:26;96245.94;;;8.61;50.98
23363;BME280;11853;48.080;11.960;2023-02-05T13:18:16;96246.13;;;8.58;52.69
23363;BME280;11853;48.080;11.960;2023-02-05T13:20:54;96250.59;;;8.45;52.53
23363;BME280;11853;48.080;11.960;2023-02-05T13:23:39;96244.19;;;8.34;52.96
23363;BME280;11853;48.080;11.960;2023-02-05T13:26:37;96253.25;;;8.18;54.54
23363;BME280;11853;48.080;11.960;2023-02-05T13:29:26;96248.72;;;8.20;55.10
23363;BME280;11853;48.080;11.960;2023-02-05T13:31:57;96248.59;;;8.08;54.65
23363;BME280;11853;48.080;11.960;2023-02-05T13:34:26;96245.94;;;7.96;55.74
23363;BME280;11853;48.080;11.960;2023-02-05T13:39:40;96247.19;;;7.90;55.46
23363;BME280;11853;48.080;11.960;2023-02-05T13:45:26;96245.19;;;7.94;55.95
23363;BME280;11853;48.080;11.960;2023-02-05T13:58:58;96242.75;;;7.63;58.41
23363;BME280;11853;48.080;11.960;2023-02-05T14:01:34;96242.31;;;7.57;58.54
23363;BME280;11853;48.080;11.960;2023-02-05T14:04:07;96235.56;;;7.53;58.52
23363;BME280;11853;48.080;11.960;2023-02-05T14:06:40;96237.13;;;7.55;58.94
23363;BME280;11853;48.080;11.960;2023-02-05T14:09:21;96229.41;;;7.52;58.16
23363;BME280;11853;48.080;11.960;2023-02-05T14:11:54;96233.63;;;7.55;59.43
23363;BME280;11853;48.080;11.960;2023-02-05T14:14:38;96239.69;;;7.57;58.20
23363;BME280;11853;48.080;11.960;2023-02-05T14:19:51;96236.53;;;7.37;58.75
23363;BME280;11853;48.080;11.960;2023-02-05T14:25:02;96234.66;;;7.39;59.43
23363;BME280;11853;48.080;11.960;2023-02-05T14:29:55;96232.59;;;7.30;60.66
23363;BME280;11853;48.080;11.960;2023-02-05T14:35:03;96240.44;;;7.17;61.12
23363;BME280;11853;48.080;11.960;2023-02-05T14:40:25;96245.28;;;6.96;62.87
23363;BME280;11853;48.080;11.960;2023-02-05T14:42:58;96239.25;;;6.94;63.36
23363;BME280;11853;48.080;11.960;2023-02-05T14:45:31;96238.66;;;7.04;63.38
23363;BME280;11853;48.080;11.960;2023-02-05T14:47:57;96247.91;;;6.96;63.36
23363;BME280;11853;48.080;11.960;2023-02-05T14:50:24;96248.88;;;6.95;63.75
23363;BME280;11853;48.080;11.960;2023-02-05T14:52:55;96248.50;;;6.87;64.32
23363;BME280;11853;48.080;11.960;2023-02-05T14:55:37;96242.09;;;6.77;66.15